createdAt,value
2022-08-10T00:01:54.824Z,42.52
2022-08-10T00:04:24.912Z,42.72
2022-08-10T00:06:54.849Z,40.67
2022-08-10T00:09:24.746Z,42.50
2022-08-10T00:11:53.274Z,42.62
2022-08-10T00:14:21.941Z,42.91
2022-08-10T00:16:50.331Z,42.66
2022-08-10T00:19:19.146Z,42.55
2022-08-10T00:21:47.884Z,42.89
2022-08-10T00:24:16.835Z,43.35
2022-08-10T00:28:00.823Z,43.20
2022-08-10T00:29:33.796Z,43.10
2022-08-10T00:32:02.318Z,43.11
2022-08-10T00:34:32.388Z,43.00
2022-08-10T00:37:01.834Z,42.87
2022-08-10T00:39:34.544Z,42.98
2022-08-10T00:42:10.232Z,43.13
2022-08-10T00:44:43.724Z,42.84
2022-08-10T00:47:22.757Z,42.57
2022-08-10T00:50:02.860Z,42.58
2022-08-10T00:52:32.426Z,43.31
2022-08-10T00:55:03.272Z,43.11
2022-08-10T00:57:33.465Z,42.95
2022-08-10T01:00:02.282Z,42.85
2022-08-10T01:02:33.240Z,43.07
2022-08-10T01:05:05.532Z,42.95
2022-08-10T01:08:00.991Z,42.68
2022-08-10T01:10:44.159Z,42.78
2022-08-10T01:13:38.366Z,42.58
2022-08-10T01:16:21.329Z,42.70
2022-08-10T01:18:59.614Z,42.62
2022-08-10T01:22:02.148Z,42.57
2022-08-10T01:24:50.504Z,42.85
2022-08-10T01:27:36.986Z,42.72
2022-08-10T01:30:11.662Z,42.72
2022-08-10T01:33:01.842Z,43.08
2022-08-10T01:35:36.841Z,43.48
2022-08-10T01:38:08.149Z,43.54
2022-08-10T01:40:40.382Z,43.76
2022-08-10T01:43:11.368Z,43.56
2022-08-10T01:45:45.305Z,43.59
2022-08-10T01:48:34.501Z,43.48
2022-08-10T01:51:33.884Z,43.41
2022-08-10T01:54:04.111Z,43.50
2022-08-10T01:56:35.211Z,43.48
2022-08-10T01:59:10.396Z,44.07
2022-08-10T02:01:40.672Z,42.13
2022-08-10T02:04:13.543Z,43.29
2022-08-10T02:06:49.416Z,43.63
2022-08-10T02:09:22.711Z,44.61
2022-08-10T02:12:05.133Z,44.40
2022-08-10T02:15:02.665Z,43.66
2022-08-10T02:17:58.056Z,44.30
2022-08-10T02:20:31.656Z,44.33
2022-08-10T02:23:05.867Z,44.31
2022-08-10T02:25:41.505Z,44.29
2022-08-10T02:28:30.104Z,44.94
2022-08-10T02:31:11.726Z,44.48
2022-08-10T02:33:56.651Z,45.16
2022-08-10T02:36:31.933Z,44.97
2022-08-10T02:39:05.353Z,44.79
2022-08-10T02:45:13.195Z,44.90
2022-08-10T02:45:22.069Z,45.06
2022-08-10T02:47:46.601Z,44.99
2022-08-10T02:50:39.173Z,44.52
2022-08-10T02:53:56.108Z,45.06
2022-08-10T02:56:14.617Z,45.19
2022-08-10T02:58:48.772Z,45.43
2022-08-10T03:01:21.620Z,45.55
2022-08-10T03:04:09.683Z,45.18
2022-08-10T03:06:43.999Z,45.09
2022-08-10T03:09:16.437Z,45.25
2022-08-10T03:12:36.328Z,44.72
2022-08-10T03:14:36.673Z,44.88
2022-08-10T03:17:06.079Z,45.02
2022-08-10T03:20:35.046Z,44.98
2022-08-10T03:22:26.937Z,44.70
2022-08-10T03:24:56.154Z,44.45
2022-08-10T03:27:24.732Z,44.53
2022-08-10T03:30:28.668Z,44.55
2022-08-10T03:32:45.225Z,44.29
2022-08-10T03:35:15.543Z,44.13
2022-08-10T03:37:44.114Z,43.83
2022-08-10T03:40:12.655Z,43.82
2022-08-10T03:42:41.677Z,43.52
2022-08-10T03:45:10.800Z,44.22
2022-08-10T03:47:41.026Z,44.33
2022-08-10T03:50:45.710Z,44.28
2022-08-10T03:52:59.844Z,43.91
2022-08-10T03:56:29.275Z,44.15
2022-08-10T03:58:17.383Z,43.80
2022-08-10T04:00:47.327Z,43.31
2022-08-10T04:03:15.729Z,43.27
2022-08-10T04:05:44.589Z,43.48
2022-08-10T04:08:14.502Z,43.12
2022-08-10T04:10:42.919Z,43.14
2022-08-10T04:13:11.226Z,42.94
2022-08-10T04:15:39.839Z,42.88
2022-08-10T04:18:07.890Z,42.61
2022-08-10T04:20:45.370Z,43.09
2022-08-10T04:23:20.389Z,43.13
2022-08-10T04:25:49.041Z,42.97
2022-08-10T04:28:18.224Z,42.82
2022-08-10T04:30:47.700Z,42.65
2022-08-10T04:33:18.330Z,40.71
2022-08-10T04:35:48.516Z,41.73
2022-08-10T04:38:18.706Z,42.11
2022-08-10T04:40:47.651Z,42.51
2022-08-10T04:43:16.338Z,42.11
2022-08-10T04:45:48.497Z,42.29
2022-08-10T04:48:42.717Z,42.42
2022-08-10T04:51:17.817Z,41.58
2022-08-10T04:54:03.793Z,41.73
2022-08-10T04:56:39.367Z,41.51
2022-08-10T04:59:10.560Z,41.59
2022-08-10T05:02:28.313Z,41.37
2022-08-10T05:04:35.811Z,40.88
2022-08-10T05:07:16.323Z,40.71
2022-08-10T05:10:04.929Z,40.35
2022-08-10T05:12:38.246Z,40.14
2022-08-10T05:15:10.296Z,39.77
2022-08-10T05:17:40.046Z,39.33
2022-08-10T05:20:11.425Z,39.00
2022-08-10T05:22:42.410Z,38.60
2022-08-10T05:25:13.941Z,38.18
2022-08-10T05:27:43.071Z,38.30
2022-08-10T05:30:15.570Z,38.12
2022-08-10T05:32:57.538Z,38.06
2022-08-10T05:35:51.770Z,37.60
2022-08-10T05:38:20.888Z,37.52
2022-08-10T05:40:50.606Z,38.23
2022-08-10T05:43:21.539Z,38.12
2022-08-10T05:46:18.959Z,38.26
2022-08-10T05:48:58.694Z,37.87
2022-08-10T05:51:28.821Z,36.23
2022-08-10T05:54:01.205Z,37.17
2022-08-10T05:56:53.358Z,37.55
2022-08-10T06:00:33.640Z,37.51
2022-08-10T06:02:35.666Z,37.19
2022-08-10T06:05:13.725Z,37.35
2022-08-10T06:07:48.652Z,37.30
2022-08-10T06:10:31.313Z,37.51
2022-08-10T06:13:29.950Z,36.79
2022-08-10T06:16:12.522Z,36.59
2022-08-10T06:18:41.386Z,36.80
2022-08-10T06:21:10.008Z,37.03
2022-08-10T06:23:40.008Z,36.39
2022-08-10T06:26:14.063Z,36.31
2022-08-10T06:29:02.250Z,36.08
2022-08-10T06:31:53.744Z,35.79
2022-08-10T06:35:07.951Z,35.76
2022-08-10T06:37:38.680Z,35.38
2022-08-10T06:40:07.612Z,34.96
2022-08-10T06:42:43.976Z,34.60
2022-08-10T06:45:20.010Z,34.64
2022-08-10T06:47:56.009Z,34.63
2022-08-10T06:50:45.370Z,34.45
2022-08-10T06:53:52.197Z,33.90
2022-08-10T06:56:37.825Z,33.14
2022-08-10T06:59:21.670Z,32.67
2022-08-10T07:01:59.943Z,32.63
2022-08-10T07:04:35.404Z,32.61
2022-08-10T07:07:04.767Z,31.59
2022-08-10T07:09:37.090Z,32.43
2022-08-10T07:12:09.351Z,32.16
2022-08-10T07:14:41.365Z,32.02
2022-08-10T07:17:16.862Z,31.94
2022-08-10T07:19:52.502Z,30.75
2022-08-10T07:23:22.846Z,30.44
2022-08-10T07:25:16.958Z,29.46
2022-08-10T07:28:00.215Z,29.28
2022-08-10T07:30:39.000Z,28.21
2022-08-10T07:33:09.195Z,28.22
2022-08-10T07:35:43.096Z,27.42
2022-08-10T07:38:19.005Z,27.76
2022-08-10T07:40:49.504Z,27.63
2022-08-10T07:43:21.040Z,27.21
2022-08-10T07:45:50.855Z,26.89
2022-08-10T07:48:33.078Z,27.08
2022-08-10T07:51:02.768Z,26.13
2022-08-10T07:53:40.317Z,26.11
2022-08-10T07:56:26.102Z,25.78
2022-08-10T07:59:06.626Z,25.32
2022-08-10T08:01:41.351Z,25.11
2022-08-10T08:04:12.714Z,25.07
2022-08-10T08:06:43.220Z,24.81
2022-08-10T08:09:11.917Z,24.78
2022-08-10T08:11:45.032Z,24.46
2022-08-10T08:14:15.762Z,24.32
2022-08-10T08:16:48.525Z,24.38
2022-08-10T08:19:27.852Z,23.85
2022-08-10T08:24:06.312Z,23.54
2022-08-10T08:24:48.048Z,23.19
2022-08-10T08:27:21.749Z,23.44
2022-08-10T08:29:51.665Z,22.92
2022-08-10T08:32:23.483Z,22.88
2022-08-10T08:34:59.090Z,22.69
2022-08-10T08:38:31.248Z,22.52
2022-08-10T08:40:31.032Z,22.34
2022-08-10T08:43:32.996Z,22.50
2022-08-10T08:46:32.535Z,22.00
2022-08-10T08:50:08.449Z,21.80
2022-08-10T08:52:49.115Z,22.65
2022-08-10T08:56:03.884Z,22.28
2022-08-10T08:59:04.354Z,22.22
2022-08-10T09:02:11.506Z,22.00
2022-08-10T09:04:55.093Z,22.25
2022-08-10T09:08:04.214Z,22.15
2022-08-10T09:10:43.683Z,21.31
2022-08-10T09:13:35.306Z,20.62
2022-08-10T09:16:30.967Z,20.54
2022-08-10T09:19:19.745Z,20.38
2022-08-10T09:22:19.174Z,19.53
2022-08-10T09:24:59.934Z,18.72
2022-08-10T09:27:55.917Z,18.49
2022-08-10T09:30:40.589Z,17.44
2022-08-10T09:36:24.605Z,17.29
2022-08-10T09:36:32.475Z,16.66
2022-08-10T09:40:12.187Z,16.21
2022-08-10T09:42:33.515Z,15.54
2022-08-10T09:45:24.746Z,14.66
2022-08-10T09:48:25.559Z,14.47
2022-08-10T09:54:10.127Z,13.42
2022-08-10T09:57:44.768Z,13.16
2022-08-10T10:00:21.636Z,12.58
2022-08-10T10:02:59.497Z,11.28
2022-08-10T10:05:51.932Z,11.91
2022-08-10T10:08:33.018Z,11.31
2022-08-10T10:11:12.486Z,12.45
2022-08-10T10:17:27.368Z,13.54
2022-08-10T10:20:09.863Z,14.59
2022-08-10T10:22:58.077Z,15.09
2022-08-10T10:25:51.119Z,15.77
2022-08-10T10:29:15.345Z,16.00
2022-08-10T10:31:46.539Z,16.21
2022-08-10T10:34:38.587Z,16.12
2022-08-10T10:37:10.506Z,15.67
2022-08-10T10:39:45.320Z,16.07
2022-08-10T10:42:47.395Z,15.22
2022-08-10T10:45:24.853Z,14.59
2022-08-10T10:48:11.545Z,13.60
2022-08-10T10:51:10.642Z,13.73
2022-08-10T10:54:14.913Z,14.13
2022-08-10T10:56:56.482Z,13.12
2022-08-10T10:59:57.599Z,13.51
2022-08-10T11:02:41.449Z,13.48
2022-08-10T11:05:43.492Z,13.01
2022-08-10T11:08:36.405Z,12.38
2022-08-10T11:11:59.711Z,12.11
2022-08-10T11:14:26.844Z,12.32
2022-08-10T11:17:15.028Z,11.18
2022-08-10T11:20:05.285Z,11.78
2022-08-10T11:23:01.829Z,10.98
2022-08-10T11:25:42.939Z,10.93
2022-08-10T11:28:18.550Z,11.16
2022-08-10T11:31:05.612Z,10.79
2022-08-10T11:34:11.378Z,10.32
2022-08-10T11:36:42.674Z,9.28
2022-08-10T11:39:48.845Z,9.31
2022-08-10T11:42:36.044Z,8.54
2022-08-10T11:45:11.084Z,9.21
2022-08-10T11:47:46.214Z,8.72
2022-08-10T11:50:25.388Z,8.66
2022-08-10T11:53:18.998Z,7.89
2022-08-10T11:56:03.589Z,8.72
2022-08-10T11:59:00.624Z,8.56
2022-08-10T12:01:34.612Z,8.49
2022-08-10T12:04:11.965Z,8.18
2022-08-10T12:06:55.320Z,8.19
2022-08-10T12:10:09.525Z,8.20
2022-08-10T12:12:17.910Z,7.81
2022-08-10T12:14:49.176Z,7.12
2022-08-10T12:17:24.488Z,7.54
2022-08-10T12:20:18.060Z,7.29
2022-08-10T12:22:53.764Z,7.82
2022-08-10T12:25:56.616Z,7.62
2022-08-10T12:28:54.227Z,7.71
2022-08-10T12:31:54.634Z,7.47
2022-08-10T12:34:47.404Z,7.51
2022-08-10T12:37:30.429Z,7.33
2022-08-10T12:40:41.808Z,7.73
2022-08-10T12:44:06.362Z,7.49
2022-08-10T12:46:15.588Z,7.18
2022-08-10T12:48:56.876Z,7.11
2022-08-10T12:51:31.632Z,7.41
2022-08-10T12:54:16.050Z,7.77
2022-08-10T12:57:12.907Z,7.23
2022-08-10T12:59:44.217Z,7.78
2022-08-10T13:02:23.460Z,7.58
2022-08-10T13:04:53.988Z,8.02
2022-08-10T13:08:25.655Z,7.23
2022-08-10T13:10:21.571Z,6.70
2022-08-10T13:12:54.634Z,7.13
2022-08-10T13:15:49.041Z,7.76
2022-08-10T13:18:19.627Z,7.06
2022-08-10T13:21:01.105Z,7.21
2022-08-10T13:23:32.087Z,8.36
2022-08-10T13:26:03.243Z,8.04
2022-08-10T13:28:45.605Z,8.36
2022-08-10T13:31:19.130Z,7.92
2022-08-10T13:34:40.655Z,8.19
2022-08-10T13:36:42.704Z,8.01
2022-08-10T13:39:13.023Z,8.14
2022-08-10T13:41:44.642Z,8.22
2022-08-10T13:44:18.078Z,8.66
2022-08-10T13:46:51.855Z,8.90
2022-08-10T13:49:22.251Z,8.90
2022-08-10T13:51:56.954Z,9.12
2022-08-10T13:54:37.418Z,8.65
2022-08-10T13:57:06.589Z,8.83
2022-08-10T14:00:35.155Z,8.85
2022-08-10T14:02:26.575Z,8.99
2022-08-10T14:04:57.410Z,9.12
2022-08-10T14:07:27.521Z,9.10
2022-08-10T14:10:08.083Z,9.30
2022-08-10T14:12:39.594Z,9.68
2022-08-10T14:15:14.656Z,9.94
2022-08-10T14:17:45.869Z,10.96
2022-08-10T14:20:20.912Z,11.11
2022-08-10T14:22:50.527Z,11.56
2022-08-10T14:25:19.198Z,11.82
2022-08-10T14:28:03.389Z,11.53
2022-08-10T14:30:33.904Z,11.52
2022-08-10T14:36:24.427Z,12.35
2022-08-10T14:38:57.134Z,12.14
2022-08-10T14:42:04.189Z,11.52
2022-08-10T14:44:21.505Z,11.27
2022-08-10T14:46:56.185Z,11.07
2022-08-10T14:49:27.172Z,11.76
2022-08-10T14:52:03.725Z,11.70
2022-08-10T14:54:34.528Z,11.64
2022-08-10T14:57:12.868Z,11.42
2022-08-10T15:00:24.765Z,12.48
2022-08-10T15:02:55.836Z,12.31
2022-08-10T15:05:39.554Z,12.78
2022-08-10T15:08:13.727Z,12.75
2022-08-10T15:10:51.170Z,13.16
2022-08-10T15:13:33.762Z,13.33
2022-08-10T15:16:12.886Z,13.64
2022-08-10T15:18:57.874Z,13.51
2022-08-10T15:21:40.744Z,13.61
2022-08-10T15:24:38.204Z,14.34
2022-08-10T15:27:11.438Z,14.30
2022-08-10T15:29:57.397Z,14.37
2022-08-10T15:32:57.613Z,14.00
2022-08-10T15:35:49.192Z,14.40
2022-08-10T15:38:44.559Z,15.18
2022-08-10T15:41:18.623Z,16.25
2022-08-10T15:43:57.047Z,18.45
2022-08-10T15:46:46.440Z,18.66
2022-08-10T15:49:45.180Z,19.19
2022-08-10T15:52:39.347Z,20.23
2022-08-10T15:55:43.257Z,20.74
2022-08-10T15:58:11.381Z,21.42
2022-08-10T16:01:03.318Z,21.42
2022-08-10T16:04:08.695Z,21.87
2022-08-10T16:07:06.073Z,21.89
2022-08-10T16:10:24.729Z,22.55
2022-08-10T16:12:45.535Z,22.18
2022-08-10T16:15:32.650Z,22.83
2022-08-10T16:18:14.798Z,23.09
2022-08-10T16:20:54.723Z,24.07
2022-08-10T16:24:12.812Z,23.77
2022-08-10T16:26:52.139Z,24.19
2022-08-10T16:29:26.483Z,25.22
2022-08-10T16:31:58.620Z,25.41
2022-08-10T16:34:34.673Z,25.81
2022-08-10T16:37:13.659Z,25.57
2022-08-10T16:39:58.651Z,26.10
2022-08-10T16:42:34.017Z,24.20
2022-08-10T16:45:11.516Z,25.94
2022-08-10T16:47:54.401Z,26.77
2022-08-10T16:50:38.937Z,26.73
2022-08-10T16:53:12.882Z,27.16
2022-08-10T16:55:50.544Z,28.00
2022-08-10T16:58:34.796Z,28.42
2022-08-10T17:01:10.588Z,28.84
2022-08-10T17:04:06.659Z,28.76
2022-08-10T17:07:14.971Z,28.06
2022-08-10T17:09:50.233Z,29.68
2022-08-10T17:12:27.048Z,29.84
2022-08-10T17:15:10.291Z,30.26
2022-08-10T17:17:52.103Z,29.60
2022-08-10T17:20:30.953Z,30.09
2022-08-10T17:23:06.764Z,30.71
2022-08-10T17:25:48.697Z,30.61
2022-08-10T17:28:34.503Z,30.71
2022-08-10T17:31:24.053Z,31.34
2022-08-10T17:34:17.489Z,31.37
2022-08-10T17:36:52.133Z,31.86
2022-08-10T17:39:26.206Z,31.50
2022-08-10T17:41:56.671Z,31.66
2022-08-10T17:44:27.411Z,32.13
2022-08-10T17:47:00.337Z,31.92
2022-08-10T17:50:00.580Z,31.66
2022-08-10T17:52:32.571Z,31.96
2022-08-10T17:55:06.793Z,32.20
2022-08-10T17:57:40.074Z,32.15
2022-08-10T18:00:15.183Z,32.52
2022-08-10T18:02:46.741Z,32.88
2022-08-10T18:05:15.729Z,32.82
2022-08-10T18:07:52.345Z,33.17
2022-08-10T18:10:23.083Z,32.65
2022-08-10T18:12:56.867Z,32.58
2022-08-10T18:15:29.300Z,32.78
2022-08-10T18:18:01.235Z,32.93
2022-08-10T18:20:39.174Z,32.68
2022-08-10T18:23:09.947Z,32.83
2022-08-10T18:25:42.023Z,33.45
2022-08-10T18:28:20.494Z,32.72
2022-08-10T18:31:01.452Z,32.90
2022-08-10T18:33:35.951Z,33.39
2022-08-10T18:36:08.058Z,33.89
2022-08-10T18:38:38.969Z,33.42
2022-08-10T18:41:12.737Z,33.52
2022-08-10T18:44:06.259Z,33.50
2022-08-10T18:46:47.074Z,33.30
2022-08-10T18:49:38.635Z,33.08
2022-08-10T18:52:13.225Z,33.35
2022-08-10T18:54:48.996Z,33.73
2022-08-10T18:57:42.113Z,33.39
2022-08-10T19:00:15.096Z,33.84
2022-08-10T19:02:58.387Z,33.70
2022-08-10T19:05:58.207Z,33.65
2022-08-10T19:08:35.238Z,34.44
2022-08-10T19:11:22.819Z,34.50
2022-08-10T19:14:00.844Z,35.26
2022-08-10T19:16:58.332Z,34.19
2022-08-10T19:20:11.020Z,34.25
2022-08-10T19:23:03.713Z,34.13
2022-08-10T19:26:32.974Z,34.43
2022-08-10T19:28:54.617Z,34.65
2022-08-10T19:31:44.248Z,34.98
2022-08-10T19:34:37.468Z,35.25
2022-08-10T19:37:32.380Z,34.83
2022-08-10T19:40:01.603Z,35.61
2022-08-10T19:42:40.869Z,35.69
2022-08-10T19:46:01.404Z,35.70
2022-08-10T19:48:31.237Z,35.22
2022-08-10T19:51:30.530Z,35.20
2022-08-10T19:54:18.731Z,35.37
2022-08-10T19:56:59.137Z,36.12
2022-08-10T20:00:18.819Z,34.95
2022-08-10T20:02:59.485Z,36.17
2022-08-10T20:05:39.533Z,35.94
2022-08-10T20:08:27.995Z,36.05
2022-08-10T20:11:09.777Z,36.15
2022-08-10T20:14:12.598Z,36.50
2022-08-10T20:16:56.214Z,37.08
2022-08-10T20:19:52.672Z,37.19
2022-08-10T20:22:52.254Z,36.90
2022-08-10T20:25:31.816Z,37.25
2022-08-10T20:28:18.945Z,37.37
2022-08-10T20:30:53.321Z,37.64
2022-08-10T20:34:01.311Z,36.54
2022-08-10T20:36:39.759Z,38.62
2022-08-10T20:39:17.687Z,38.46
2022-08-10T20:42:03.003Z,38.43
2022-08-10T20:44:59.390Z,38.42
2022-08-10T20:47:34.122Z,38.85
2022-08-10T20:50:25.549Z,38.52
2022-08-10T20:52:56.283Z,38.58
2022-08-10T20:55:27.894Z,38.52
2022-08-10T20:58:28.863Z,38.40
2022-08-10T21:02:10.919Z,38.42
2022-08-10T21:04:36.977Z,38.09
2022-08-10T21:07:28.202Z,38.83
2022-08-10T21:10:18.887Z,38.85
2022-08-10T21:13:19.075Z,38.40
2022-08-10T21:16:20.302Z,39.04
2022-08-10T21:19:06.929Z,38.86
2022-08-10T21:21:57.101Z,39.20
2022-08-10T21:24:36.199Z,39.12
2022-08-10T21:27:22.482Z,39.44
2022-08-10T21:30:10.046Z,38.98
2022-08-10T21:32:48.153Z,39.50
2022-08-10T21:35:41.204Z,39.29
2022-08-10T21:38:33.737Z,39.12
2022-08-10T21:41:18.956Z,39.83
2022-08-10T21:44:25.958Z,39.61
2022-08-10T21:47:41.904Z,39.96
2022-08-10T21:50:45.798Z,40.27
2022-08-10T21:53:56.950Z,39.45
2022-08-10T21:56:56.723Z,40.62
2022-08-10T21:59:56.350Z,40.58
2022-08-10T22:02:50.478Z,40.74
2022-08-10T22:05:50.066Z,40.60
2022-08-10T22:08:44.581Z,40.86
2022-08-10T22:11:38.068Z,40.83
2022-08-10T22:14:33.494Z,41.18
2022-08-10T22:18:04.051Z,40.98
2022-08-10T22:20:55.813Z,40.59
2022-08-10T22:24:16.687Z,40.52
2022-08-10T22:27:48.015Z,40.63
2022-08-10T22:30:37.823Z,41.52
2022-08-10T22:33:38.107Z,41.62
2022-08-10T22:37:02.059Z,40.81
2022-08-10T22:40:12.055Z,41.36
2022-08-10T22:43:10.561Z,41.86
2022-08-10T22:46:11.771Z,41.17
2022-08-10T22:49:00.695Z,41.26
2022-08-10T22:51:38.677Z,41.74
2022-08-10T22:54:35.686Z,42.02
2022-08-10T22:57:24.170Z,42.30
2022-08-10T22:59:52.774Z,42.14
2022-08-10T23:02:32.546Z,41.56
2022-08-10T23:05:12.347Z,42.25
2022-08-10T23:07:59.140Z,41.65
2022-08-10T23:10:29.649Z,42.23
2022-08-10T23:13:11.486Z,41.83
2022-08-10T23:16:13.365Z,42.25
2022-08-10T23:19:05.673Z,42.21
2022-08-10T23:22:03.401Z,41.83
2022-08-10T23:25:01.765Z,42.04
2022-08-10T23:27:38.276Z,42.09
2022-08-10T23:30:18.060Z,42.08
2022-08-10T23:32:59.397Z,42.28
2022-08-10T23:36:31.130Z,42.29
2022-08-10T23:38:28.323Z,41.81
2022-08-10T23:40:58.694Z,42.60
2022-08-10T23:43:46.834Z,42.21
2022-08-10T23:46:24.571Z,42.30
2022-08-10T23:48:56.314Z,42.53
2022-08-10T23:51:54.424Z,42.33
2022-08-10T23:54:22.947Z,42.02
2022-08-10T23:57:01.319Z,42.40
2022-08-10T23:59:32.672Z,42.57
